Time;durP1;ratioP1;P1;durP2;ratioP2;P2;SDS_P1;SDS_P2;PMS_P1;PMS_P2;Temp;Humidity;BMP_temperature;BMP_pressure;BME280_temperature;BME280_humidity;BME280_pressure;Samples;Min_cycle;Max_cycle;Signal;HPM_P1;HPM_P2
2022/04/06 00:01:47;;;;;;;12.50;7.40;;;9.80;99.40;;;;;;5097370;28;20492;-78
2022/04/06 00:04:13;;;;;;;12.13;9.00;;;9.80;99.60;;;;;;5095679;28;20020;-78
2022/04/06 00:06:39;;;;;;;14.93;9.25;;;9.70;99.90;;;;;;5096000;28;20051;-78
2022/04/06 00:09:05;;;;;;;9.52;7.28;;;9.70;99.90;;;;;;5097275;28;20020;-78
2022/04/06 00:11:31;;;;;;;13.02;8.25;;;9.70;99.90;;;;;;5098067;28;20082;-77
2022/04/06 00:13:58;;;;;;;12.27;7.88;;;9.70;99.90;;;;;;5098202;28;20028;-78
2022/04/06 00:16:24;;;;;;;11.55;8.20;;;9.70;99.90;;;;;;5097022;28;20027;-78
2022/04/06 00:18:51;;;;;;;13.52;8.02;;;9.70;99.90;;;;;;5097282;28;20032;-78
2022/04/06 00:21:17;;;;;;;8.82;7.43;;;9.60;99.90;;;;;;5097103;28;20076;-78
2022/04/06 00:23:44;;;;;;;10.52;7.35;;;9.60;99.90;;;;;;5097179;28;20012;-77
2022/04/06 00:26:09;;;;;;;11.05;7.45;;;9.60;99.90;;;;;;5096030;28;20102;-77
2022/04/06 00:28:35;;;;;;;10.90;7.45;;;9.60;99.90;;;;;;5094095;28;20515;-78
2022/04/06 00:31:02;;;;;;;11.75;7.68;;;9.50;99.90;;;;;;5085435;28;20369;-78
2022/04/06 00:33:28;;;;;;;9.02;7.05;;;9.50;99.90;;;;;;5095687;28;20020;-77
2022/04/06 00:35:56;;;;;;;14.25;7.90;;;9.50;99.90;;;;;;5095614;28;20055;-78
2022/04/06 00:38:22;;;;;;;10.35;6.85;;;9.50;99.90;;;;;;5096558;28;20024;-78
2022/04/06 00:40:47;;;;;;;10.65;7.18;;;9.40;99.90;;;;;;5095510;28;20042;-77
2022/04/06 00:43:14;;;;;;;8.35;6.90;;;9.40;99.90;;;;;;5095345;28;20028;-77
2022/04/06 00:45:41;;;;;;;9.57;7.15;;;9.40;99.90;;;;;;5095407;28;20051;-77
2022/04/06 00:48:08;;;;;;;9.23;7.40;;;9.30;99.90;;;;;;5096778;28;20025;-78
2022/04/06 00:50:34;;;;;;;12.73;6.97;;;9.30;99.90;;;;;;5095564;28;20035;-78
2022/04/06 00:53:01;;;;;;;10.65;7.07;;;9.30;99.90;;;;;;5096428;28;20060;-78
2022/04/06 00:55:34;;;;;;;11.43;6.97;;;9.20;99.90;;;;;;5096960;28;20025;-78
2022/04/06 00:58:00;;;;;;;11.52;7.80;;;9.20;99.90;;;;;;5096585;28;20032;-78
2022/04/06 01:00:26;;;;;;;11.05;7.38;;;9.20;99.90;;;;;;5096854;28;20024;-78
2022/04/06 01:02:52;;;;;;;9.80;6.97;;;9.10;99.90;;;;;;5096678;28;20020;-78
2022/04/06 01:05:19;;;;;;;13.02;7.85;;;9.10;99.90;;;;;;5096992;28;20034;-78
2022/04/06 01:07:49;;;;;;;13.27;7.05;;;9.10;99.90;;;;;;5096242;28;20008;-78
2022/04/06 01:10:16;;;;;;;8.23;6.75;;;9.20;99.90;;;;;;5097000;28;20067;-78
2022/04/06 01:12:46;;;;;;;8.88;6.30;;;9.10;99.90;;;;;;5096266;28;20547;-77
2022/04/06 01:15:13;;;;;;;10.60;7.10;;;9.20;99.90;;;;;;5095256;28;20028;-78
2022/04/06 01:17:39;;;;;;;8.27;6.40;;;9.20;99.90;;;;;;5099620;28;20109;-77
2022/04/06 01:20:07;;;;;;;9.77;6.80;;;9.30;99.90;;;;;;5098934;28;20028;-78
2022/04/06 01:22:34;;;;;;;9.50;7.45;;;9.30;99.90;;;;;;5099763;28;20016;-77
2022/04/06 01:25:01;;;;;;;10.52;7.20;;;9.30;99.90;;;;;;5100219;28;20048;-77
2022/04/06 01:27:27;;;;;;;7.95;6.57;;;9.30;99.90;;;;;;5100202;28;20016;-78
2022/04/06 01:29:54;;;;;;;10.13;7.05;;;9.30;99.90;;;;;;5100200;28;20480;-78
2022/04/06 01:32:26;;;;;;;10.23;7.35;;;9.20;99.90;;;;;;5100478;28;20054;-77
2022/04/06 01:34:54;;;;;;;9.70;7.05;;;9.20;99.90;;;;;;5101282;28;20020;-77
2022/04/06 01:37:21;;;;;;;10.77;8.70;;;9.20;99.90;;;;;;5099987;28;20025;-77
2022/04/06 01:39:48;;;;;;;12.73;7.47;;;9.20;99.90;;;;;;5098936;28;20050;-78
2022/04/06 01:42:16;;;;;;;9.63;7.40;;;9.20;99.90;;;;;;5099984;28;20073;-77
2022/04/06 01:44:46;;;;;;;9.13;7.05;;;9.20;99.90;;;;;;5098411;28;20048;-78
2022/04/06 01:47:17;;;;;;;11.35;6.53;;;9.20;99.90;;;;;;5099839;28;20027;-78
2022/04/06 01:52:27;;;;;;;13.10;6.15;;;9.10;99.90;;;;;;5099465;28;19911;-78
2022/04/06 01:55:06;;;;;;;8.13;7.25;;;9.10;99.90;;;;;;5099436;28;20024;-78
2022/04/06 01:57:33;;;;;;;7.72;6.38;;;9.00;99.90;;;;;;5098121;28;20031;-78
2022/04/06 02:00:00;;;;;;;9.48;6.78;;;9.00;99.90;;;;;;5098179;28;20024;-78
2022/04/06 02:02:28;;;;;;;9.13;6.68;;;8.90;99.90;;;;;;5099792;28;20024;-78
2022/04/06 02:04:54;;;;;;;8.80;7.22;;;8.80;99.90;;;;;;5099410;28;20024;-78
2022/04/06 02:07:20;;;;;;;10.27;6.90;;;8.80;99.90;;;;;;5099157;28;20024;-78
2022/04/06 02:09:46;;;;;;;9.23;6.78;;;8.70;99.90;;;;;;5099389;28;20012;-78
2022/04/06 02:12:12;;;;;;;7.22;6.53;;;8.60;99.90;;;;;;5097757;28;20472;-78
2022/04/06 02:14:40;;;;;;;9.23;6.95;;;8.50;99.90;;;;;;5098132;28;20499;-78
2022/04/06 02:17:07;;;;;;;9.20;6.65;;;8.50;99.90;;;;;;5098680;28;20031;-77
2022/04/06 02:19:35;;;;;;;12.93;7.22;;;8.50;99.90;;;;;;5097785;28;20472;-78
2022/04/06 02:22:01;;;;;;;10.30;6.78;;;8.40;99.90;;;;;;5094577;28;20025;-77
2022/04/06 02:24:27;;;;;;;13.65;7.30;;;8.30;99.90;;;;;;5098641;28;20416;-78
2022/04/06 02:26:53;;;;;;;10.65;6.55;;;8.30;99.90;;;;;;5098250;28;20020;-78
2022/04/06 02:29:18;;;;;;;11.20;6.45;;;8.30;99.90;;;;;;5091224;28;20021;-77
2022/04/06 02:31:44;;;;;;;11.73;7.72;;;8.40;99.90;;;;;;5091324;28;20052;-77
2022/04/06 02:34:10;;;;;;;11.35;7.00;;;8.30;99.90;;;;;;5098614;28;20059;-78
2022/04/06 02:36:36;;;;;;;9.70;6.68;;;8.30;99.90;;;;;;5097650;28;20035;-78
2022/04/06 02:39:02;;;;;;;8.05;6.72;;;8.30;99.90;;;;;;5098701;28;20036;-77
2022/04/06 02:41:28;;;;;;;8.70;6.97;;;8.30;99.90;;;;;;5098320;28;20369;-77
2022/04/06 02:43:54;;;;;;;10.27;6.55;;;8.30;99.90;;;;;;5094468;28;20052;-77
2022/04/06 02:46:20;;;;;;;9.82;6.70;;;8.20;99.90;;;;;;5097696;28;20027;-78
2022/04/06 02:48:46;;;;;;;12.75;7.45;;;8.20;99.90;;;;;;5098637;28;20066;-77
2022/04/06 02:51:12;;;;;;;10.10;6.80;;;8.20;99.90;;;;;;5096898;28;20074;-77
2022/04/06 02:53:38;;;;;;;7.72;6.45;;;8.20;99.90;;;;;;5098673;28;20099;-77
2022/04/06 02:56:04;;;;;;;7.80;6.57;;;8.20;99.90;;;;;;5096964;28;20039;-77
2022/04/06 02:58:31;;;;;;;10.95;6.70;;;8.20;99.90;;;;;;5097107;28;20032;-78
2022/04/06 03:00:57;;;;;;;9.05;6.65;;;8.10;99.90;;;;;;5097636;28;20028;-77
2022/04/06 03:03:25;;;;;;;10.43;7.07;;;8.10;99.90;;;;;;5099194;28;20548;-77
2022/04/06 03:05:51;;;;;;;10.82;7.05;;;8.10;99.90;;;;;;5098259;28;20096;-77
2022/04/06 03:08:17;;;;;;;9.80;7.50;;;8.10;99.90;;;;;;5097877;28;20103;-77
2022/04/06 03:10:43;;;;;;;9.50;6.93;;;8.20;99.90;;;;;;5098102;28;20034;-77
2022/04/06 03:13:09;;;;;;;9.25;7.35;;;8.20;99.90;;;;;;5098420;28;20042;-77
2022/04/06 03:15:35;;;;;;;10.05;6.82;;;8.20;99.90;;;;;;5096717;28;20020;-78
2022/04/06 03:18:02;;;;;;;10.63;7.47;;;8.20;99.90;;;;;;5095670;28;20056;-77
2022/04/06 03:20:28;;;;;;;11.45;8.05;;;8.20;99.90;;;;;;5096304;28;20023;-78
2022/04/06 03:22:53;;;;;;;9.35;6.75;;;8.30;99.90;;;;;;5095969;28;20020;-78
2022/04/06 03:25:20;;;;;;;11.10;7.60;;;8.20;99.90;;;;;;5096280;28;20024;-78
2022/04/06 03:27:46;;;;;;;11.30;7.47;;;8.30;99.90;;;;;;5096201;28;20392;-78
2022/04/06 03:30:12;;;;;;;10.27;7.45;;;8.30;99.90;;;;;;5096235;28;20115;-77
2022/04/06 03:32:38;;;;;;;11.10;6.78;;;8.30;99.90;;;;;;5096079;28;20034;-78
2022/04/06 03:35:06;;;;;;;8.73;7.47;;;8.30;99.90;;;;;;5097380;28;20024;-77
2022/04/06 03:37:32;;;;;;;13.32;8.32;;;8.30;99.90;;;;;;5097321;28;20024;-77
2022/04/06 03:39:58;;;;;;;11.75;6.90;;;8.30;99.90;;;;;;5096886;28;20016;-77
2022/04/06 03:42:24;;;;;;;8.70;7.35;;;8.40;99.90;;;;;;5096932;28;20490;-77
2022/04/06 03:44:50;;;;;;;11.65;7.40;;;8.40;99.90;;;;;;5094956;28;20044;-77
2022/04/06 03:47:16;;;;;;;11.15;8.15;;;8.40;99.90;;;;;;5097535;28;20071;-78
2022/04/06 03:49:42;;;;;;;9.45;7.28;;;8.30;99.90;;;;;;5095274;28;20032;-78
2022/04/06 03:52:08;;;;;;;13.07;7.72;;;8.30;99.90;;;;;;5096038;28;20534;-78
2022/04/06 03:54:34;;;;;;;8.27;6.70;;;8.30;99.90;;;;;;5096320;28;20023;-78
2022/04/06 03:57:00;;;;;;;11.50;7.40;;;8.30;99.90;;;;;;5096216;28;20020;-77
2022/04/06 03:59:26;;;;;;;8.13;6.50;;;8.30;99.90;;;;;;5096461;28;20024;-77
2022/04/06 04:01:52;;;;;;;9.13;7.47;;;8.30;99.90;;;;;;5095288;28;20111;-78
2022/04/06 04:04:18;;;;;;;12.50;6.80;;;8.40;99.90;;;;;;5097333;28;20105;-77
2022/04/06 04:06:44;;;;;;;10.40;6.40;;;8.40;99.90;;;;;;5096910;28;20028;-78
2022/04/06 04:09:10;;;;;;;8.82;6.72;;;8.40;99.90;;;;;;5097300;28;20026;-76
2022/04/06 04:11:36;;;;;;;8.90;6.95;;;8.40;99.90;;;;;;5097339;28;20438;-78
2022/04/06 04:14:02;;;;;;;10.20;6.57;;;8.40;99.90;;;;;;5097108;28;20024;-77
2022/04/06 04:16:28;;;;;;;8.23;6.50;;;8.40;99.90;;;;;;5097369;28;20027;-77
2022/04/06 04:18:54;;;;;;;8.55;6.28;;;8.40;99.90;;;;;;5095933;28;20085;-78
2022/04/06 04:21:32;;;;;;;7.65;6.47;;;8.40;99.90;;;;;;5095496;28;20036;-78
2022/04/06 04:23:59;;;;;;;9.30;6.65;;;8.40;99.90;;;;;;5095810;28;20016;-78
2022/04/06 04:26:25;;;;;;;8.70;6.35;;;8.40;99.90;;;;;;5096319;28;20060;-77
2022/04/06 04:28:51;;;;;;;8.73;6.65;;;8.40;99.90;;;;;;5097135;28;20016;-78
2022/04/06 04:31:17;;;;;;;9.15;6.28;;;8.40;99.90;;;;;;5096256;28;20050;-77
2022/04/06 04:33:43;;;;;;;7.70;6.22;;;8.40;99.90;;;;;;5096869;28;20020;-78
2022/04/06 04:36:09;;;;;;;10.18;6.63;;;8.40;99.90;;;;;;5096030;28;20038;-78
2022/04/06 04:38:38;;;;;;;8.93;6.75;;;8.40;99.90;;;;;;5097759;28;20028;-78
2022/04/06 04:41:07;;;;;;;12.63;7.20;;;8.40;99.90;;;;;;5095774;28;20081;-77
2022/04/06 04:43:33;;;;;;;9.75;6.97;;;8.40;99.90;;;;;;5096887;28;20024;-78
2022/04/06 04:45:59;;;;;;;8.60;6.85;;;8.40;99.90;;;;;;5095980;28;20063;-78
2022/04/06 04:48:25;;;;;;;9.73;7.07;;;8.40;99.90;;;;;;5096896;28;20070;-77
2022/04/06 04:50:51;;;;;;;11.20;7.88;;;8.40;99.90;;;;;;5098908;28;20063;-77
2022/04/06 04:53:17;;;;;;;15.32;8.13;;;8.40;99.90;;;;;;5100300;28;20024;-77
2022/04/06 04:55:43;;;;;;;10.70;7.15;;;8.40;99.90;;;;;;5099383;28;20481;-77
2022/04/06 04:58:09;;;;;;;10.38;6.95;;;8.40;99.90;;;;;;5100488;28;20365;-79
2022/04/06 05:00:35;;;;;;;8.27;6.93;;;8.40;99.90;;;;;;5100613;28;20032;-78
2022/04/06 05:03:02;;;;;;;12.32;7.60;;;8.40;99.90;;;;;;5099437;28;20027;-78
2022/04/06 05:05:29;;;;;;;11.68;7.32;;;8.40;99.90;;;;;;5100632;28;20074;-78
2022/04/06 05:07:58;;;;;;;9.25;7.32;;;8.40;99.90;;;;;;5099995;28;20031;-79
2022/04/06 05:10:24;;;;;;;9.35;7.40;;;8.40;99.90;;;;;;5098414;28;20040;-78
2022/04/06 05:12:51;;;;;;;10.15;7.88;;;8.40;99.90;;;;;;5100257;28;20020;-79
2022/04/06 05:15:17;;;;;;;12.68;6.97;;;8.40;99.90;;;;;;5100326;28;20031;-78
2022/04/06 05:17:43;;;;;;;8.38;7.20;;;8.40;99.90;;;;;;5100212;28;20024;-79
2022/04/06 05:20:10;;;;;;;11.32;8.05;;;8.40;99.90;;;;;;5098758;28;20043;-78
2022/04/06 05:22:36;;;;;;;10.00;7.25;;;8.30;99.90;;;;;;5099841;28;20017;-78
2022/04/06 05:25:10;;;;;;;9.05;7.45;;;8.40;99.90;;;;;;5091052;28;20025;-79
2022/04/06 05:27:53;;;;;;;12.65;7.13;;;8.40;99.90;;;;;;5080359;28;20043;-78
2022/04/06 05:30:21;;;;;;;9.55;6.28;;;8.40;99.90;;;;;;5090114;28;20508;-78
2022/04/06 05:32:50;;;;;;;7.78;6.15;;;8.30;99.90;;;;;;5091257;28;20082;-78
2022/04/06 05:35:16;;;;;;;11.70;7.53;;;8.40;99.90;;;;;;5093224;28;20028;-78
2022/04/06 05:37:43;;;;;;;11.65;7.05;;;8.40;99.90;;;;;;5079608;28;20095;-78
2022/04/06 05:40:11;;;;;;;10.75;7.60;;;8.40;99.90;;;;;;5081655;28;20032;-78
2022/04/06 05:42:38;;;;;;;12.30;8.07;;;8.40;99.90;;;;;;5093712;28;20028;-78
2022/04/06 05:45:06;;;;;;;12.48;7.85;;;8.40;99.90;;;;;;5098841;28;20043;-78
2022/04/06 05:47:33;;;;;;;13.38;8.43;;;8.40;99.90;;;;;;5099271;28;20036;-78
2022/04/06 05:49:59;;;;;;;12.82;7.47;;;8.40;99.90;;;;;;5097583;28;20032;-77
2022/04/06 05:52:25;;;;;;;10.50;8.05;;;8.40;99.90;;;;;;5080435;28;20024;-77
2022/04/06 05:54:53;;;;;;;10.45;8.00;;;8.30;99.90;;;;;;5084400;28;20032;-78
2022/04/06 05:57:20;;;;;;;19.65;9.35;;;8.40;99.90;;;;;;5097682;28;20115;-78
2022/04/06 05:59:46;;;;;;;13.18;9.48;;;8.30;99.90;;;;;;5099021;28;20099;-79
2022/04/06 06:02:13;;;;;;;19.65;9.63;;;8.30;99.90;;;;;;5097427;28;20012;-78
2022/04/06 06:04:39;;;;;;;19.63;11.07;;;8.30;99.90;;;;;;5097943;28;20056;-77
2022/04/06 06:07:06;;;;;;;14.93;8.13;;;8.40;99.90;;;;;;5095937;28;20111;-79
2022/04/06 06:09:32;;;;;;;11.80;8.35;;;8.40;99.90;;;;;;5098797;28;20073;-77
2022/04/06 06:11:59;;;;;;;12.65;8.80;;;8.40;99.90;;;;;;5098555;28;20099;-77
2022/04/06 06:14:26;;;;;;;10.35;7.40;;;8.40;99.90;;;;;;5088206;28;20028;-78
2022/04/06 06:16:52;;;;;;;11.38;8.15;;;8.40;99.90;;;;;;5097083;28;20065;-78
2022/04/06 06:19:18;;;;;;;9.18;7.22;;;8.40;99.90;;;;;;5097728;28;20035;-81
2022/04/06 06:21:45;;;;;;;10.85;8.05;;;8.50;99.90;;;;;;5097252;28;20028;-79
2022/04/06 06:24:11;;;;;;;10.95;7.55;;;8.50;99.90;;;;;;5095363;28;20024;-82
2022/04/06 06:26:42;;;;;;;10.32;7.97;;;8.50;99.90;;;;;;5091412;28;20476;-81
2022/04/06 06:29:08;;;;;;;12.05;7.50;;;8.50;99.90;;;;;;5097077;28;20105;-84
2022/04/06 06:31:35;;;;;;;12.07;8.00;;;8.60;99.90;;;;;;5098935;28;20198;-82
2022/04/06 06:34:01;;;;;;;8.55;7.22;;;8.60;99.90;;;;;;5098518;28;20024;-81
2022/04/06 06:36:28;;;;;;;13.73;8.15;;;8.60;99.90;;;;;;5097454;28;20434;-84
2022/04/06 06:38:54;;;;;;;9.27;7.53;;;8.60;99.90;;;;;;5098753;28;20035;-83
2022/04/06 06:41:21;;;;;;;12.00;7.78;;;8.70;99.90;;;;;;5098855;28;20050;-81
2022/04/06 06:43:48;;;;;;;14.65;8.70;;;8.70;99.90;;;;;;5098257;28;20058;-82
2022/04/06 06:46:19;;;;;;;13.25;8.40;;;8.70;99.90;;;;;;5097481;28;20031;-83
2022/04/06 06:48:45;;;;;;;12.23;8.02;;;8.70;99.90;;;;;;5096403;28;20114;-79
2022/04/06 06:51:12;;;;;;;14.60;7.57;;;8.80;99.90;;;;;;5085326;28;20032;-81
2022/04/06 06:53:38;;;;;;;12.57;7.43;;;8.80;99.90;;;;;;5089668;28;20032;-82
2022/04/06 06:56:04;;;;;;;15.65;8.27;;;8.80;99.90;;;;;;5092797;28;20024;-82
2022/04/06 06:58:30;;;;;;;11.80;7.40;;;8.80;99.90;;;;;;5097511;28;20026;-83
2022/04/06 07:00:56;;;;;;;11.27;8.10;;;8.80;99.90;;;;;;5097327;28;20463;-83
2022/04/06 07:03:22;;;;;;;11.45;7.50;;;8.80;99.90;;;;;;5096958;28;20511;-83
2022/04/06 07:05:48;;;;;;;13.73;9.23;;;8.90;99.90;;;;;;5097058;28;20016;-83
2022/04/06 07:08:14;;;;;;;12.48;7.78;;;8.90;99.90;;;;;;5098300;28;20392;-81
2022/04/06 07:10:46;;;;;;;13.10;8.00;;;8.90;99.90;;;;;;5086545;28;20028;-83
2022/04/06 07:13:16;;;;;;;11.60;7.90;;;8.90;99.90;;;;;;5088088;28;20059;-80
2022/04/06 07:15:43;;;;;;;17.33;8.30;;;9.00;99.90;;;;;;5095997;28;20528;-82
2022/04/06 07:18:09;;;;;;;10.45;6.65;;;9.00;99.90;;;;;;5098383;28;20395;-79
2022/04/06 07:20:35;;;;;;;13.05;7.82;;;9.00;99.90;;;;;;5096767;28;20024;-80
2022/04/06 07:23:05;;;;;;;10.90;7.22;;;9.00;99.90;;;;;;5097216;28;20086;-81
2022/04/06 07:25:31;;;;;;;10.55;8.13;;;9.00;99.90;;;;;;5068999;28;20032;-81
2022/04/06 07:27:57;;;;;;;11.55;7.30;;;9.00;99.90;;;;;;5097019;28;20023;-79
2022/04/06 07:30:23;;;;;;;11.20;6.93;;;9.00;99.90;;;;;;5096693;28;20487;-80
2022/04/06 07:32:49;;;;;;;11.00;7.05;;;9.10;99.90;;;;;;5098190;28;20068;-80
2022/04/06 07:35:16;;;;;;;13.93;8.15;;;9.10;99.90;;;;;;5097124;28;20111;-80
2022/04/06 07:37:44;;;;;;;11.45;7.72;;;9.10;99.90;;;;;;5095981;28;20020;-81
2022/04/06 07:40:12;;;;;;;15.15;8.13;;;9.20;99.90;;;;;;5096205;28;20052;-81
2022/04/06 07:42:39;;;;;;;10.70;6.80;;;9.20;99.90;;;;;;5097593;28;20023;-81
2022/04/06 07:45:07;;;;;;;12.40;7.13;;;9.30;99.90;;;;;;5097584;28;20108;-80
2022/04/06 07:47:34;;;;;;;14.50;7.47;;;9.30;99.90;;;;;;5098028;28;20031;-82
2022/04/06 07:50:03;;;;;;;9.07;6.88;;;9.30;99.90;;;;;;5096556;28;20017;-82
2022/04/06 07:52:30;;;;;;;10.88;6.80;;;9.40;99.90;;;;;;5096016;28;20024;-80
2022/04/06 07:54:56;;;;;;;7.07;6.38;;;9.50;99.90;;;;;;5095350;28;20050;-81
2022/04/06 07:57:25;;;;;;;13.63;7.35;;;9.60;99.90;;;;;;5096174;28;20047;-82
2022/04/06 07:59:52;;;;;;;13.40;6.85;;;9.60;99.90;;;;;;5096463;28;20028;-80
2022/04/06 08:02:18;;;;;;;8.75;6.22;;;9.70;99.90;;;;;;5097675;28;20016;-81
2022/04/06 08:04:44;;;;;;;9.43;6.65;;;9.70;99.90;;;;;;5096077;28;20507;-80
2022/04/06 08:07:10;;;;;;;7.97;6.40;;;9.70;99.90;;;;;;5097143;28;20023;-81
2022/04/06 08:09:36;;;;;;;10.68;6.55;;;9.70;99.90;;;;;;5097393;28;20031;-81
2022/04/06 08:12:02;;;;;;;13.02;6.60;;;9.70;99.90;;;;;;5097762;28;20512;-82
2022/04/06 08:14:28;;;;;;;7.65;6.05;;;9.60;99.90;;;;;;5097547;28;20077;-80
2022/04/06 08:16:55;;;;;;;12.60;5.93;;;9.70;99.90;;;;;;5090048;28;20044;-81
2022/04/06 08:19:25;;;;;;;9.80;6.45;;;9.80;99.90;;;;;;5095464;28;20024;-82
2022/04/06 08:21:52;;;;;;;9.88;6.40;;;9.90;99.90;;;;;;5096739;28;20036;-80
2022/04/06 08:24:18;;;;;;;9.57;5.97;;;9.90;99.90;;;;;;5096931;28;20081;-82
2022/04/06 08:26:44;;;;;;;11.18;6.13;;;10.00;99.90;;;;;;5099357;28;20020;-80
2022/04/06 08:29:10;;;;;;;11.95;6.22;;;10.10;99.90;;;;;;5093851;28;20099;-79
2022/04/06 08:31:37;;;;;;;8.75;6.95;;;10.20;99.90;;;;;;5092798;28;20024;-80
2022/04/06 08:34:04;;;;;;;7.20;5.88;;;10.30;99.90;;;;;;5101204;28;20059;-80
2022/04/06 08:36:30;;;;;;;12.20;6.90;;;10.30;99.90;;;;;;5100626;28;20184;-80
2022/04/06 08:38:57;;;;;;;9.13;7.03;;;10.20;99.90;;;;;;5082439;28;20527;-80
2022/04/06 08:41:26;;;;;;;12.27;5.80;;;10.30;99.90;;;;;;5092037;28;20017;-79
2022/04/06 08:43:52;;;;;;;8.55;6.72;;;10.40;99.90;;;;;;5093462;28;20071;-79
2022/04/06 08:46:20;;;;;;;9.73;6.55;;;10.40;99.90;;;;;;5088379;28;20071;-81
2022/04/06 08:48:49;;;;;;;10.35;6.60;;;10.40;99.90;;;;;;5100903;28;20020;-80
2022/04/06 08:51:17;;;;;;;9.45;6.70;;;10.40;99.90;;;;;;5100488;28;20024;-80
2022/04/06 08:53:47;;;;;;;14.18;6.45;;;10.50;99.90;;;;;;5092549;28;20109;-80
2022/04/06 08:56:14;;;;;;;10.82;6.43;;;10.60;99.90;;;;;;5095552;28;20029;-80
2022/04/06 08:58:41;;;;;;;8.93;6.47;;;10.80;99.90;;;;;;5089132;28;20032;-80
2022/04/06 09:01:07;;;;;;;7.72;6.20;;;10.90;99.90;;;;;;5097824;28;20096;-82
2022/04/06 09:03:37;;;;;;;11.93;6.90;;;11.00;99.90;;;;;;5089197;28;20043;-80
2022/04/06 09:06:06;;;;;;;10.35;5.70;;;11.10;99.90;;;;;;5090430;28;20103;-79
2022/04/06 09:08:39;;;;;;;11.27;6.68;;;11.10;99.90;;;;;;5082179;28;20043;-79
2022/04/06 09:11:10;;;;;;;9.50;5.57;;;11.10;99.90;;;;;;5087415;28;20025;-80
2022/04/06 09:13:37;;;;;;;13.02;6.35;;;11.30;99.90;;;;;;5080132;28;20043;-82
2022/04/06 09:16:04;;;;;;;7.68;5.88;;;11.40;99.90;;;;;;5081067;28;20032;-80
2022/04/06 09:18:42;;;;;;;6.95;5.43;;;11.60;99.90;;;;;;5080831;28;20017;-81
2022/04/06 09:21:09;;;;;;;8.10;5.72;;;12.00;99.90;;;;;;5092399;28;20036;-81
2022/04/06 09:23:36;;;;;;;12.10;5.55;;;12.20;99.90;;;;;;5099408;28;20020;-80
2022/04/06 09:26:03;;;;;;;13.23;6.15;;;12.40;99.90;;;;;;5099685;28;20074;-78
2022/04/06 09:28:30;;;;;;;8.38;5.32;;;12.30;99.90;;;;;;5097699;28;20042;-79
2022/04/06 09:30:56;;;;;;;7.47;5.00;;;12.40;99.90;;;;;;5098970;28;20032;-78
2022/04/06 09:33:22;;;;;;;9.77;5.93;;;12.40;99.90;;;;;;5089363;28;20399;-79
2022/04/06 09:35:48;;;;;;;9.27;6.90;;;12.30;99.90;;;;;;5089779;28;20402;-79
2022/04/06 09:38:14;;;;;;;6.68;5.32;;;12.20;99.90;;;;;;5097484;28;20119;-79
2022/04/06 09:40:41;;;;;;;10.40;5.93;;;12.20;99.90;;;;;;5096167;28;20058;-79
2022/04/06 09:43:09;;;;;;;7.25;4.78;;;12.40;99.90;;;;;;5098645;28;20016;-78
2022/04/06 09:48:19;;;;;;;6.95;4.82;;;12.30;99.90;;;;;;5097392;28;20526;-78
2022/04/06 09:50:56;;;;;;;5.53;4.50;;;12.30;99.90;;;;;;5089019;28;20039;-76
2022/04/06 09:53:30;;;;;;;10.20;4.50;;;12.20;99.90;;;;;;5099277;28;20031;-77
2022/04/06 09:55:57;;;;;;;7.50;4.97;;;12.30;99.90;;;;;;5098035;28;20028;-76
2022/04/06 09:58:24;;;;;;;10.75;4.20;;;12.30;99.90;;;;;;5097685;28;20434;-77
2022/04/06 10:00:52;;;;;;;7.95;4.95;;;12.30;99.90;;;;;;5097804;28;20028;-80
2022/04/06 10:03:20;;;;;;;4.72;4.13;;;12.20;99.90;;;;;;5097274;28;20073;-80
2022/04/06 10:05:50;;;;;;;11.25;5.68;;;12.10;99.90;;;;;;5087073;28;20017;-79
2022/04/06 10:08:18;;;;;;;8.52;4.90;;;12.00;99.90;;;;;;5087006;28;20025;-82
2022/04/06 10:10:45;;;;;;;5.65;4.43;;;12.00;99.90;;;;;;5099355;28;20035;-81
2022/04/06 10:13:12;;;;;;;15.45;5.15;;;11.90;99.90;;;;;;5097686;28;20032;-80
2022/04/06 10:15:39;;;;;;;7.60;5.20;;;11.90;99.90;;;;;;5097488;28;20099;-78
2022/04/06 10:18:06;;;;;;;6.68;5.35;;;11.80;99.90;;;;;;5098277;28;20094;-78
2022/04/06 10:20:49;;;;;;;9.40;4.60;;;11.80;99.90;;;;;;5096865;28;20373;-79
2022/04/06 10:23:40;;;;;;;8.27;5.65;;;11.90;99.90;;;;;;5090497;28;20515;-79
2022/04/06 10:26:09;;;;;;;9.02;5.90;;;11.90;99.90;;;;;;5077463;28;20109;-81
2022/04/06 10:28:35;;;;;;;7.55;5.75;;;11.90;99.90;;;;;;5090632;28;20016;-80
2022/04/06 10:31:22;;;;;;;9.20;5.35;;;12.00;99.90;;;;;;5087380;28;20039;-82
2022/04/06 10:33:49;;;;;;;10.40;4.90;;;12.00;99.90;;;;;;5098812;28;20020;-82
2022/04/06 10:36:30;;;;;;;10.13;4.55;;;12.00;99.90;;;;;;5098621;28;20028;-78
2022/04/06 10:39:16;;;;;;;;;;;12.00;99.90;;;;;;5097624;28;20062;-81
2022/04/06 10:42:11;;;;;;;9.57;5.20;;;11.90;99.90;;;;;;5098100;28;19964;-80
2022/04/06 10:44:39;;;;;;;7.38;4.93;;;12.00;99.90;;;;;;5097009;28;20047;-79
2022/04/06 10:47:10;;;;;;;9.65;4.78;;;12.00;99.90;;;;;;5097233;28;20030;-81
2022/04/06 10:49:36;;;;;;;10.85;4.50;;;12.10;99.90;;;;;;5096744;28;20025;-80
2022/04/06 10:52:18;;;;;;;7.88;5.00;;;11.90;99.90;;;;;;5098154;28;20035;-80
2022/04/06 10:54:45;;;;;;;6.55;4.60;;;12.00;99.90;;;;;;5098012;28;20031;-80
2022/04/06 10:57:12;;;;;;;7.40;4.20;;;12.20;99.90;;;;;;5096875;28;20389;-80
2022/04/06 10:59:38;;;;;;;8.98;4.82;;;12.20;99.90;;;;;;5095944;28;20047;-78
2022/04/06 11:02:21;;;;;;;11.05;4.57;;;12.10;99.90;;;;;;5096699;28;20052;-79
2022/04/06 11:04:48;;;;;;;5.43;4.25;;;11.90;99.90;;;;;;5096426;28;20070;-81
2022/04/06 11:10:06;;;;;;;13.38;4.82;;;11.80;99.90;;;;;;5097692;28;20419;-80
2022/04/06 11:10:12;;;;;;;7.95;4.95;;;11.60;99.90;;;;;;5097959;28;20028;-80
2022/04/06 11:12:59;;;;;;;8.32;5.47;;;11.60;99.90;;;;;;5097814;28;20028;-78
2022/04/06 11:15:41;;;;;;;11.10;5.20;;;11.50;99.90;;;;;;5096908;28;20023;-80
2022/04/06 11:18:47;;;;;;;9.88;6.03;;;11.50;99.90;;;;;;5084289;28;20089;-81
2022/04/06 11:21:14;;;;;;;14.27;5.22;;;11.50;99.90;;;;;;5093752;28;20076;-80
2022/04/06 11:23:41;;;;;;;9.15;5.22;;;11.50;99.90;;;;;;5079336;28;20017;-80
2022/04/06 11:26:07;;;;;;;13.43;5.47;;;11.60;99.90;;;;;;5083920;28;20020;-80
2022/04/06 11:28:33;;;;;;;10.00;4.40;;;11.70;99.90;;;;;;5096115;28;20026;-76
2022/04/06 11:31:03;;;;;;;6.82;4.70;;;11.70;99.90;;;;;;5095906;28;20088;-79
2022/04/06 11:33:42;;;;;;;7.03;4.47;;;11.50;99.90;;;;;;5097055;28;20039;-80
2022/04/06 11:36:15;;;;;;;10.43;5.50;;;11.40;99.90;;;;;;5082540;28;20251;-80
2022/04/06 11:38:42;;;;;;;9.82;5.15;;;11.50;99.90;;;;;;5077452;28;20187;-80
2022/04/06 11:41:07;;;;;;;8.75;5.40;;;11.50;99.90;;;;;;5078411;28;20512;-81
2022/04/06 11:43:40;;;;;;;6.90;4.97;;;11.50;99.90;;;;;;5093917;28;20603;-80
2022/04/06 11:46:06;;;;;;;8.32;4.63;;;11.50;99.90;;;;;;5096129;28;20032;-80
2022/04/06 11:48:42;;;;;;;6.78;4.43;;;11.50;99.90;;;;;;5088855;28;20024;-80
2022/04/06 11:51:09;;;;;;;7.65;4.90;;;11.50;99.90;;;;;;5074480;28;20539;-78
2022/04/06 11:53:36;;;;;;;7.50;4.90;;;11.50;99.90;;;;;;5097272;28;20039;-76
2022/04/06 11:56:03;;;;;;;7.25;4.82;;;11.60;99.90;;;;;;5097547;28;20074;-76
2022/04/06 11:58:38;;;;;;;8.10;5.18;;;11.60;99.90;;;;;;5097342;28;20024;-77
2022/04/06 12:01:16;;;;;;;10.18;4.97;;;11.50;99.90;;;;;;5094556;28;20031;-81
2022/04/06 12:03:44;;;;;;;11.75;5.95;;;11.40;99.90;;;;;;5097157;28;20023;-79
2022/04/06 12:06:12;;;;;;;12.27;6.38;;;11.40;99.90;;;;;;5096924;28;20020;-77
2022/04/06 12:08:40;;;;;;;8.77;5.45;;;11.30;99.90;;;;;;5095644;28;20027;-78
2022/04/06 12:11:06;;;;;;;11.55;6.03;;;11.30;99.90;;;;;;5095891;28;20032;-75
2022/04/06 12:13:35;;;;;;;9.35;5.45;;;11.20;99.90;;;;;;5095537;28;20024;-80
2022/04/06 12:16:02;;;;;;;12.35;5.45;;;11.20;99.90;;;;;;5095718;28;20039;-78
2022/04/06 12:18:29;;;;;;;7.80;5.03;;;11.10;99.90;;;;;;5095683;28;20089;-80
2022/04/06 12:20:55;;;;;;;10.88;5.22;;;11.30;99.90;;;;;;5095196;28;20059;-78
2022/04/06 12:23:26;;;;;;;11.13;5.30;;;11.40;99.90;;;;;;5097105;28;20022;-78
2022/04/06 12:25:52;;;;;;;7.85;4.85;;;11.60;99.90;;;;;;5096981;28;20016;-78
2022/04/06 12:28:22;;;;;;;5.20;4.40;;;11.70;99.90;;;;;;5087309;28;20025;-79
2022/04/06 12:30:57;;;;;;;7.50;5.28;;;11.70;99.90;;;;;;5093950;28;20032;-77
2022/04/06 12:33:50;;;;;;;6.65;4.38;;;11.70;99.90;;;;;;5096970;28;20488;-81
2022/04/06 12:36:24;;;;;;;8.63;4.88;;;11.70;99.90;;;;;;5095959;28;20074;-80
2022/04/06 12:39:04;;;;;;;8.55;4.53;;;11.80;99.90;;;;;;5096655;28;20431;-78
2022/04/06 12:41:32;;;;;;;6.43;4.57;;;11.70;99.90;;;;;;5096616;28;20024;-80
2022/04/06 12:44:00;;;;;;;5.53;4.28;;;11.70;99.90;;;;;;5096954;28;20040;-82
2022/04/06 12:46:37;;;;;;;9.57;4.57;;;11.70;99.90;;;;;;5096011;28;20024;-76
2022/04/06 12:49:42;;;;;;;5.57;4.30;;;11.80;99.90;;;;;;5095810;28;20024;-77
2022/04/06 12:52:08;;;;;;;7.03;4.20;;;11.80;99.90;;;;;;5095198;28;20028;-78
2022/04/06 12:54:35;;;;;;;8.18;4.68;;;11.80;99.90;;;;;;5095275;28;20443;-78
2022/04/06 12:57:13;;;;;;;5.75;4.20;;;11.80;99.90;;;;;;5096915;28;20408;-79
2022/04/06 12:59:41;;;;;;;5.85;3.97;;;11.80;99.90;;;;;;5095519;28;20056;-78